createdAt,value
2022-10-28T00:02:44.935Z,98940.00
2022-10-28T00:05:19.332Z,98957.00
2022-10-28T00:07:53.833Z,98955.00
2022-10-28T00:10:30.063Z,98954.00
2022-10-28T00:13:05.194Z,98925.00
2022-10-28T00:15:45.096Z,98934.00
2022-10-28T00:18:40.056Z,98939.00
2022-10-28T00:21:24.297Z,98929.00
2022-10-28T00:23:58.981Z,98939.00
2022-10-28T00:26:51.748Z,98937.00
2022-10-28T00:29:27.519Z,98928.00
2022-10-28T00:32:09.592Z,98935.00
2022-10-28T00:34:48.758Z,98917.00
2022-10-28T00:37:33.438Z,98918.00
2022-10-28T00:40:10.601Z,98924.00
2022-10-28T00:42:58.040Z,98935.00
2022-10-28T00:45:32.995Z,98927.00
2022-10-28T00:48:08.850Z,98929.00
2022-10-28T00:50:52.874Z,98932.00
2022-10-28T00:53:34.627Z,98922.00
2022-10-28T00:56:10.479Z,98932.00
2022-10-28T00:58:48.698Z,98919.00
2022-10-28T01:01:27.775Z,98910.00
2022-10-28T01:04:26.756Z,98922.00
2022-10-28T01:07:04.555Z,98921.00
2022-10-28T01:09:52.214Z,98931.00
2022-10-28T01:12:36.737Z,98928.00
2022-10-28T01:15:24.957Z,98938.00
2022-10-28T01:18:23.339Z,98932.00
2022-10-28T01:21:27.721Z,98926.00
2022-10-28T01:24:20.085Z,98921.00
2022-10-28T01:28:01.218Z,98921.00
2022-10-28T01:31:01.333Z,98921.00
2022-10-28T01:33:48.948Z,98927.00
2022-10-28T01:36:32.966Z,98925.00
2022-10-28T01:39:16.881Z,98913.00
2022-10-28T01:42:00.037Z,98919.00
2022-10-28T01:44:47.462Z,98913.00
2022-10-28T01:47:31.895Z,98921.00
2022-10-28T01:50:52.095Z,98920.00
2022-10-28T01:53:43.510Z,98906.00
2022-10-28T01:56:24.227Z,98917.00
2022-10-28T01:59:05.775Z,98913.00
2022-10-28T02:01:40.481Z,98915.00
2022-10-28T02:04:16.756Z,98914.00
2022-10-28T02:07:09.592Z,98909.00
2022-10-28T02:10:03.068Z,98907.00
2022-10-28T02:12:39.517Z,98888.00
2022-10-28T02:15:34.875Z,98897.00
2022-10-28T02:18:21.936Z,98905.00
2022-10-28T02:21:03.107Z,98893.00
2022-10-28T02:23:45.131Z,98895.00
2022-10-28T02:26:27.489Z,98899.00
2022-10-28T02:29:09.655Z,98871.00
2022-10-28T02:31:48.701Z,98888.00
2022-10-28T02:34:28.825Z,98873.00
2022-10-28T02:37:18.483Z,98891.00
2022-10-28T02:39:58.325Z,98888.00
2022-10-28T02:42:38.412Z,98884.00
2022-10-28T02:45:18.183Z,98886.00
2022-10-28T02:47:58.053Z,98895.00
2022-10-28T02:50:37.793Z,98882.00
2022-10-28T02:53:21.348Z,98861.00
2022-10-28T02:56:00.876Z,98875.00
2022-10-28T02:58:40.800Z,98848.00
2022-10-28T03:01:21.193Z,98856.00
2022-10-28T03:03:55.547Z,98856.00
2022-10-28T03:06:30.243Z,98867.00
2022-10-28T03:09:06.454Z,98868.00
2022-10-28T03:11:41.989Z,98867.00
2022-10-28T03:14:16.480Z,98874.00
2022-10-28T03:16:51.062Z,98875.00
2022-10-28T03:19:25.836Z,98870.00
2022-10-28T03:22:00.307Z,98884.00
2022-10-28T03:24:38.252Z,98888.00
2022-10-28T03:27:13.385Z,98881.00
2022-10-28T03:29:51.145Z,98882.00
2022-10-28T03:32:25.485Z,98891.00
2022-10-28T03:35:03.042Z,98874.00
2022-10-28T03:37:37.395Z,98869.00
2022-10-28T03:40:14.743Z,98876.00
2022-10-28T03:42:49.340Z,98873.00
2022-10-28T03:45:24.029Z,98870.00
2022-10-28T03:48:16.235Z,98866.00
2022-10-28T03:50:54.688Z,98863.00
2022-10-28T03:53:31.493Z,98862.00
2022-10-28T03:56:08.957Z,98867.00
2022-10-28T03:58:57.264Z,98875.00
2022-10-28T04:01:57.912Z,98873.00
2022-10-28T04:04:32.177Z,98878.00
2022-10-28T04:07:09.742Z,98873.00
2022-10-28T04:09:44.098Z,98870.00
2022-10-28T04:12:53.923Z,98865.00
2022-10-28T04:15:34.415Z,98881.00
2022-10-28T04:18:16.179Z,98870.00
2022-10-28T04:21:09.517Z,98880.00
2022-10-28T04:23:44.211Z,98866.00
2022-10-28T04:26:39.070Z,98876.00
2022-10-28T04:29:22.761Z,98869.00
2022-10-28T04:31:57.574Z,98883.00
2022-10-28T04:34:48.039Z,98871.00
2022-10-28T04:37:36.293Z,98862.00
2022-10-28T04:40:15.862Z,98867.00
2022-10-28T04:42:50.346Z,98836.00
2022-10-28T04:45:42.826Z,98862.00
2022-10-28T04:48:17.752Z,98849.00
2022-10-28T04:50:53.669Z,98859.00
2022-10-28T04:53:28.846Z,98865.00
2022-10-28T04:56:04.246Z,98869.00
2022-10-28T04:58:39.541Z,98849.00
2022-10-28T05:01:16.434Z,98833.00
2022-10-28T05:03:51.820Z,98848.00
2022-10-28T05:06:27.898Z,98848.00
2022-10-28T05:09:03.429Z,98843.00
2022-10-28T05:11:38.877Z,98838.00
2022-10-28T05:14:15.193Z,98850.00
2022-10-28T05:16:50.995Z,98850.00
2022-10-28T05:19:25.482Z,98840.00
2022-10-28T05:21:59.810Z,98842.00
2022-10-28T05:24:45.046Z,98842.00
2022-10-28T05:27:21.092Z,98848.00
2022-10-28T05:29:55.493Z,98853.00
2022-10-28T05:32:34.853Z,98836.00
2022-10-28T05:35:10.546Z,98837.00
2022-10-28T05:37:45.782Z,98836.00
2022-10-28T05:40:21.676Z,98858.00
2022-10-28T05:42:56.376Z,98836.00
2022-10-28T05:45:31.402Z,98830.00
2022-10-28T05:48:11.915Z,98844.00
2022-10-28T05:50:46.515Z,98855.00
2022-10-28T05:53:21.188Z,98833.00
2022-10-28T05:55:55.855Z,98854.00
2022-10-28T05:58:30.240Z,98839.00
2022-10-28T06:01:09.068Z,98833.00
2022-10-28T06:03:45.222Z,98846.00
2022-10-28T06:06:22.132Z,98841.00
2022-10-28T06:09:03.829Z,98854.00
2022-10-28T06:11:48.508Z,98860.00
2022-10-28T06:14:37.782Z,98837.00
2022-10-28T06:17:27.960Z,98854.00
2022-10-28T06:20:22.578Z,98856.00
2022-10-28T06:23:08.357Z,98848.00
2022-10-28T06:29:25.518Z,98873.00
2022-10-28T06:32:19.509Z,98863.00
2022-10-28T06:35:02.166Z,98867.00
2022-10-28T06:37:44.836Z,98874.00
2022-10-28T06:40:31.949Z,98859.00
2022-10-28T06:43:49.494Z,98878.00
2022-10-28T06:46:33.670Z,98873.00
2022-10-28T06:49:33.228Z,98873.00
2022-10-28T06:53:31.269Z,98881.00
2022-10-28T06:56:57.825Z,98871.00
2022-10-28T06:59:33.125Z,98859.00
2022-10-28T07:02:12.585Z,98865.00
2022-10-28T07:04:52.235Z,98875.00
2022-10-28T07:07:27.009Z,98862.00
2022-10-28T07:10:03.278Z,98873.00
2022-10-28T07:12:41.188Z,98860.00
2022-10-28T07:15:15.634Z,98844.00
2022-10-28T07:17:54.871Z,98861.00
2022-10-28T07:20:32.068Z,98840.00
2022-10-28T07:23:26.900Z,98860.00
2022-10-28T07:26:01.358Z,98858.00
2022-10-28T07:28:43.064Z,98849.00
2022-10-28T07:31:21.956Z,98853.00
2022-10-28T07:33:58.342Z,98843.00
2022-10-28T07:36:33.452Z,98853.00
2022-10-28T07:39:33.572Z,98845.00
2022-10-28T07:42:09.503Z,98855.00
2022-10-28T07:44:52.997Z,98862.00
2022-10-28T07:47:28.100Z,98845.00
2022-10-28T07:50:03.652Z,98871.00
2022-10-28T07:52:38.688Z,98878.00
2022-10-28T07:55:13.645Z,98891.00
2022-10-28T07:57:52.007Z,98895.00
2022-10-28T08:00:31.474Z,98907.00
2022-10-28T08:03:07.083Z,98895.00
2022-10-28T08:05:41.743Z,98890.00
2022-10-28T08:08:16.507Z,98887.00
2022-10-28T08:10:51.425Z,98898.00
2022-10-28T08:13:26.956Z,98866.00
2022-10-28T08:16:03.532Z,98885.00
2022-10-28T08:18:39.528Z,98882.00
2022-10-28T08:21:17.544Z,98891.00
2022-10-28T08:24:04.753Z,98905.00
2022-10-28T08:26:39.640Z,98906.00
2022-10-28T08:29:14.322Z,98903.00
2022-10-28T08:31:53.149Z,98903.00
2022-10-28T08:34:45.776Z,98913.00
2022-10-28T08:38:02.882Z,98908.00
2022-10-28T08:41:13.478Z,98889.00
2022-10-28T08:44:01.676Z,98892.00
2022-10-28T08:47:05.463Z,98894.00
2022-10-28T08:50:17.347Z,98901.00
2022-10-28T08:53:19.777Z,98903.00
2022-10-28T08:56:14.864Z,98901.00
2022-10-28T08:58:54.798Z,98898.00
2022-10-28T09:01:40.832Z,98906.00
2022-10-28T09:04:41.714Z,98891.00
2022-10-28T09:07:23.872Z,98903.00
2022-10-28T09:10:17.570Z,98883.00
2022-10-28T09:13:08.208Z,98900.00
2022-10-28T09:15:53.847Z,98894.00
2022-10-28T09:19:00.382Z,98914.00
2022-10-28T09:22:09.866Z,98912.00
2022-10-28T09:25:25.461Z,98915.00
2022-10-28T09:28:29.814Z,98914.00
2022-10-28T09:31:30.109Z,98928.00
2022-10-28T09:34:19.383Z,98931.00
2022-10-28T09:37:17.237Z,98928.00
2022-10-28T09:39:58.444Z,98930.00
2022-10-28T09:46:41.597Z,98940.00
2022-10-28T09:49:37.112Z,98941.00
2022-10-28T09:52:49.254Z,98930.00
2022-10-28T09:55:26.210Z,98941.00
2022-10-28T09:58:13.316Z,98934.00
2022-10-28T10:00:53.464Z,98922.00
2022-10-28T10:03:33.994Z,98947.00
2022-10-28T10:06:14.504Z,98931.00
2022-10-28T10:08:59.757Z,98912.00
2022-10-28T10:11:40.298Z,98921.00
2022-10-28T10:14:20.352Z,98919.00
2022-10-28T10:17:59.182Z,98910.00
2022-10-28T10:33:21.827Z,98925.00
2022-10-28T10:36:00.447Z,98928.00
2022-10-28T10:38:36.920Z,98905.00
2022-10-28T10:41:11.799Z,98931.00
2022-10-28T10:43:51.548Z,98929.00
2022-10-28T10:46:28.051Z,98921.00
2022-10-28T10:49:23.371Z,98930.00
2022-10-28T10:52:22.993Z,98921.00
2022-10-28T10:55:07.595Z,98920.00
2022-10-28T10:57:48.094Z,98915.00
2022-10-28T11:00:26.365Z,98912.00
2022-10-28T11:03:05.352Z,98930.00
2022-10-28T11:05:55.061Z,98922.00
2022-10-28T11:13:29.240Z,98902.00
2022-10-28T11:16:26.427Z,98903.00
2022-10-28T11:19:35.754Z,98896.00
2022-10-28T11:22:24.362Z,98892.00
2022-10-28T11:25:36.144Z,98895.00
2022-10-28T11:28:50.963Z,98901.00
2022-10-28T11:39:50.748Z,98900.00
2022-10-28T11:43:04.301Z,98904.00
2022-10-28T11:46:09.689Z,98916.00
2022-10-28T11:49:27.242Z,98918.00
2022-10-28T11:52:41.273Z,98901.00
2022-10-28T11:56:08.163Z,98903.00
2022-10-28T11:59:26.019Z,98896.00
2022-10-28T12:02:23.557Z,98873.00
2022-10-28T12:05:18.139Z,98880.00
2022-10-28T12:08:35.542Z,98875.00
2022-10-28T12:11:29.112Z,98860.00
2022-10-28T12:17:32.827Z,98858.00
2022-10-28T12:20:15.872Z,98838.00
2022-10-28T12:22:56.779Z,98826.00
2022-10-28T12:25:42.379Z,98793.00
2022-10-28T12:28:31.090Z,98812.00
2022-10-28T12:34:18.960Z,98807.00
2022-10-28T12:37:02.500Z,98791.00
2022-10-28T12:39:43.708Z,98791.00
2022-10-28T12:42:27.048Z,98843.00
2022-10-28T12:45:07.780Z,98809.00
2022-10-28T12:48:01.619Z,98806.00
2022-10-28T12:51:10.315Z,98788.00
2022-10-28T12:53:54.985Z,98818.00
2022-10-28T12:56:43.774Z,98808.00
2022-10-28T12:59:36.934Z,98811.00
2022-10-28T13:02:18.356Z,98804.00
2022-10-28T13:05:06.241Z,98819.00
2022-10-28T13:08:04.173Z,98806.00
2022-10-28T13:10:48.363Z,98813.00
2022-10-28T13:13:43.352Z,98826.00
2022-10-28T13:16:39.497Z,98811.00
2022-10-28T13:19:48.686Z,98812.00
2022-10-28T13:23:14.480Z,98812.00
2022-10-28T13:26:22.727Z,98810.00
2022-10-28T13:29:26.356Z,98810.00
2022-10-28T13:32:06.817Z,98813.00
2022-10-28T13:34:45.678Z,98801.00
2022-10-28T13:37:24.395Z,98821.00
2022-10-28T13:40:00.305Z,98815.00
2022-10-28T13:42:48.240Z,98814.00
2022-10-28T13:49:36.311Z,98822.00
2022-10-28T13:55:46.624Z,98821.00
2022-10-28T13:59:09.691Z,98812.00
2022-10-28T14:02:08.072Z,98821.00
2022-10-28T14:05:00.530Z,98811.00
2022-10-28T14:07:56.481Z,98828.00
2022-10-28T14:10:35.859Z,98819.00
2022-10-28T14:13:22.339Z,98828.00
2022-10-28T14:16:34.337Z,98829.00
2022-10-28T14:19:21.749Z,98834.00
2022-10-28T14:22:03.334Z,98820.00
2022-10-28T14:24:57.481Z,98826.00
2022-10-28T14:27:45.411Z,98825.00
2022-10-28T14:30:33.006Z,98816.00
2022-10-28T14:33:28.735Z,98819.00
2022-10-28T14:36:30.503Z,98822.00
2022-10-28T14:39:41.918Z,98837.00
2022-10-28T14:42:34.887Z,98819.00
2022-10-28T14:45:45.702Z,98830.00
2022-10-28T14:48:50.805Z,98831.00
2022-10-28T14:51:42.255Z,98838.00
2022-10-28T14:54:39.630Z,98847.00
2022-10-28T14:57:34.157Z,98842.00
2022-10-28T15:00:18.937Z,98856.00
2022-10-28T15:03:12.911Z,98851.00
2022-10-28T15:05:47.702Z,98851.00
2022-10-28T15:08:22.153Z,98858.00
2022-10-28T15:11:17.275Z,98846.00
2022-10-28T15:14:14.760Z,98848.00
2022-10-28T15:16:52.061Z,98843.00
2022-10-28T15:19:35.373Z,98835.00
2022-10-28T15:23:14.644Z,98844.00
2022-10-28T15:26:10.677Z,98845.00
2022-10-28T15:28:51.539Z,98841.00
2022-10-28T15:31:33.573Z,98842.00
2022-10-28T15:34:21.814Z,98845.00
2022-10-28T15:40:16.320Z,98839.00
2022-10-28T15:43:56.726Z,98836.00
2022-10-28T15:46:33.471Z,98833.00
2022-10-28T15:49:35.621Z,98836.00
2022-10-28T15:52:42.232Z,98839.00
2022-10-28T15:56:06.479Z,98840.00
2022-10-28T15:58:37.370Z,98833.00
2022-10-28T16:01:33.043Z,98827.00
2022-10-28T16:04:43.545Z,98822.00
2022-10-28T16:07:22.125Z,98815.00
2022-10-28T16:10:17.363Z,98813.00
2022-10-28T16:12:58.544Z,98830.00
2022-10-28T16:15:57.006Z,98826.00
2022-10-28T16:18:49.989Z,98829.00
2022-10-28T16:21:28.475Z,98830.00
2022-10-28T16:24:05.451Z,98825.00
2022-10-28T16:26:41.512Z,98833.00
2022-10-28T16:29:33.693Z,98839.00
2022-10-28T16:32:12.304Z,98829.00
2022-10-28T16:34:58.842Z,98825.00
2022-10-28T16:37:55.359Z,98828.00
2022-10-28T16:40:50.436Z,98826.00
2022-10-28T16:43:36.932Z,98823.00
2022-10-28T16:46:40.761Z,98823.00
2022-10-28T16:49:16.847Z,98839.00
2022-10-28T16:51:51.979Z,98841.00
2022-10-28T16:54:28.375Z,98818.00
2022-10-28T16:57:16.264Z,98833.00
2022-10-28T16:59:54.705Z,98837.00
2022-10-28T17:02:39.659Z,98843.00
2022-10-28T17:05:28.682Z,98844.00
2022-10-28T17:08:05.951Z,98832.00
2022-10-28T17:10:45.681Z,98833.00
2022-10-28T17:13:20.937Z,98839.00
2022-10-28T17:16:01.105Z,98834.00
2022-10-28T17:18:40.775Z,98840.00
2022-10-28T17:21:29.262Z,98844.00
2022-10-28T17:24:18.849Z,98828.00
2022-10-28T17:27:12.075Z,98835.00
2022-10-28T17:30:00.788Z,98838.00
2022-10-28T17:32:37.889Z,98839.00
2022-10-28T17:35:40.070Z,98848.00
2022-10-28T17:38:16.768Z,98856.00
2022-10-28T17:41:01.433Z,98848.00
2022-10-28T17:44:29.585Z,98850.00
2022-10-28T17:47:04.247Z,98853.00
2022-10-28T17:49:47.475Z,98839.00
2022-10-28T17:52:38.981Z,98831.00
2022-10-28T17:55:22.593Z,98841.00
2022-10-28T17:58:10.796Z,98849.00
2022-10-28T18:00:45.969Z,98847.00
2022-10-28T18:03:52.422Z,98862.00
2022-10-28T18:06:29.256Z,98845.00
2022-10-28T18:09:40.698Z,98851.00
2022-10-28T18:12:21.776Z,98856.00
2022-10-28T18:23:29.834Z,98865.00
2022-10-28T18:26:13.419Z,98870.00
2022-10-28T18:28:51.729Z,98877.00
2022-10-28T18:31:26.284Z,98868.00
2022-10-28T18:34:04.261Z,98868.00
2022-10-28T18:36:39.832Z,98869.00
2022-10-28T18:39:46.887Z,98862.00
2022-10-28T18:46:27.357Z,98886.00
2022-10-28T18:54:20.999Z,98880.00
2022-10-28T18:56:57.886Z,98883.00
2022-10-28T19:00:17.378Z,98878.00
2022-10-28T19:03:45.114Z,98886.00
2022-10-28T19:06:46.837Z,98884.00
2022-10-28T19:18:40.734Z,98893.00
2022-10-28T19:21:51.717Z,98881.00
2022-10-28T19:24:27.959Z,98877.00
2022-10-28T19:27:04.735Z,98893.00
2022-10-28T19:29:45.798Z,98873.00
2022-10-28T19:32:27.814Z,98871.00
2022-10-28T19:35:06.158Z,98880.00
2022-10-28T19:41:47.286Z,98881.00
2022-10-28T19:49:15.525Z,98896.00
2022-10-28T19:52:17.156Z,98891.00
2022-10-28T19:55:14.510Z,98889.00
2022-10-28T19:58:35.258Z,98878.00
2022-10-28T20:01:17.691Z,98877.00
2022-10-28T20:03:53.508Z,98874.00
2022-10-28T20:11:03.662Z,98867.00
2022-10-28T20:18:41.198Z,98877.00
2022-10-28T20:24:48.446Z,98872.00
2022-10-28T20:36:38.145Z,98887.00
2022-10-28T20:39:21.569Z,98887.00
2022-10-28T20:41:58.253Z,98899.00
2022-10-28T20:44:33.860Z,98888.00
2022-10-28T20:47:08.692Z,98878.00
2022-10-28T20:50:10.218Z,98886.00
2022-10-28T20:53:31.948Z,98900.00
2022-10-28T21:04:58.995Z,98913.00
2022-10-28T21:07:58.119Z,98914.00
2022-10-28T21:10:36.368Z,98899.00
2022-10-28T21:13:29.019Z,98904.00
2022-10-28T21:20:15.935Z,98906.00
2022-10-28T21:23:07.576Z,98899.00
2022-10-28T21:34:09.386Z,98895.00
2022-10-28T21:37:33.301Z,98898.00
2022-10-28T21:49:03.786Z,98898.00
2022-10-28T21:55:55.463Z,98902.00
2022-10-28T21:58:46.138Z,98905.00
2022-10-28T22:01:23.059Z,98915.00
2022-10-28T22:04:03.760Z,98908.00
2022-10-28T22:06:39.894Z,98910.00
2022-10-28T22:09:14.092Z,98899.00
2022-10-28T22:12:05.370Z,98922.00
2022-10-28T22:14:39.697Z,98929.00
2022-10-28T22:17:14.010Z,98941.00
2022-10-28T22:20:10.947Z,98931.00
2022-10-28T22:22:47.497Z,98936.00
2022-10-28T22:25:39.956Z,98942.00
2022-10-28T22:28:41.332Z,98934.00
2022-10-28T22:31:39.423Z,98927.00
2022-10-28T22:34:15.795Z,98928.00
2022-10-28T22:37:03.934Z,98940.00
2022-10-28T22:39:38.196Z,98930.00
2022-10-28T22:42:15.904Z,98929.00
2022-10-28T22:44:51.865Z,98930.00
2022-10-28T22:47:33.149Z,98934.00
2022-10-28T22:50:11.057Z,98940.00
2022-10-28T22:53:03.844Z,98932.00
2022-10-28T22:59:51.940Z,98920.00
2022-10-28T23:03:03.498Z,98930.00
2022-10-28T23:05:57.445Z,98926.00
2022-10-28T23:09:33.312Z,98928.00
2022-10-28T23:12:08.893Z,98928.00
2022-10-28T23:14:43.143Z,98929.00
2022-10-28T23:17:35.725Z,98934.00
2022-10-28T23:20:16.969Z,98933.00
2022-10-28T23:23:15.328Z,98938.00
2022-10-28T23:25:54.735Z,98927.00
2022-10-28T23:28:29.113Z,98935.00
2022-10-28T23:31:06.593Z,98930.00
2022-10-28T23:33:42.499Z,98930.00
2022-10-28T23:36:27.902Z,98934.00
2022-10-28T23:39:02.125Z,98934.00
2022-10-28T23:41:51.880Z,98926.00
2022-10-28T23:48:47.393Z,98923.00
2022-10-28T23:51:39.916Z,98936.00
2022-10-28T23:54:45.352Z,98923.00
2022-10-28T23:57:21.889Z,98918.00
2022-10-28T23:59:57.895Z,98932.00
